Time;durP1;ratioP1;P1;durP2;ratioP2;P2;SDS_P1;SDS_P2;PMS_P1;PMS_P2;Temp;Humidity;BMP_temperature;BMP_pressure;BME280_temperature;BME280_humidity;BME280_pressure;Samples;Min_cycle;Max_cycle;Signal;HPM_P1;HPM_P2
2023/06/21 00:01:38;;;;;;;;;13.20;13.20;;;;;;;;5050930;28;8810;-86
2023/06/21 00:04:07;;;;;;;;;16.00;14.40;;;;;;;;5051950;28;8845;-87
2023/06/21 00:06:34;;;;;;;;;15.80;15.80;;;;;;;;5054323;28;8877;-82
2023/06/21 00:09:03;;;;;;;;;16.00;15.20;;;;;;;;5053985;28;8834;-81
2023/06/21 00:11:31;;;;;;;;;13.20;12.40;;;;;;;;5052703;28;8992;-82
2023/06/21 00:14:01;;;;;;;;;13.80;13.80;;;;;;;;5051008;28;8872;-82
2023/06/21 00:16:32;;;;;;;;;12.80;11.20;;;;;;;;5061103;28;8889;-81
2023/06/21 00:18:59;;;;;;;;;15.00;13.60;;;;;;;;5050150;28;8849;-81
2023/06/21 00:21:31;;;;;;;;;15.40;14.00;;;;;;;;5062837;28;8874;-86
2023/06/21 00:24:02;;;;;;;;;13.40;13.40;;;;;;;;5052669;28;9007;-81
2023/06/21 00:26:30;;;;;;;;;15.00;13.40;;;;;;;;5053179;28;8887;-84
2023/06/21 00:28:57;;;;;;;;;16.80;16.80;;;;;;;;5051179;28;8865;-84
2023/06/21 00:31:24;;;;;;;;;7.00;7.00;;;;;;;;5051395;28;8904;-82
2023/06/21 00:33:57;;;;;;;;;11.20;11.20;;;;;;;;5049667;28;9682;-82
2023/06/21 00:36:25;;;;;;;;;13.40;13.40;;;;;;;;5051797;28;8935;-82
2023/06/21 00:38:56;;;;;;;;;12.60;12.60;;;;;;;;5053308;28;9027;-82
2023/06/21 00:41:23;;;;;;;;;14.20;12.60;;;;;;;;5065922;28;8947;-80
2023/06/21 00:43:51;;;;;;;;;14.20;14.20;;;;;;;;5054655;28;8847;-81
2023/06/21 00:46:18;;;;;;;;;24.20;21.40;;;;;;;;5054337;28;8877;-81
2023/06/21 00:48:45;;;;;;;;;24.00;23.20;;;;;;;;5053916;28;8874;-81
2023/06/21 00:51:14;;;;;;;;;19.60;18.60;;;;;;;;5066307;28;8897;-81
2023/06/21 00:53:41;;;;;;;;;24.40;23.40;;;;;;;;5051821;28;8857;-82
2023/06/21 00:56:11;;;;;;;;;22.40;20.40;;;;;;;;5062755;28;8881;-81
2023/06/21 00:58:39;;;;;;;;;18.50;17.00;;;;;;;;5052886;28;8931;-85
2023/06/21 01:01:07;;;;;;;;;18.20;18.20;;;;;;;;5049754;28;8778;-88
2023/06/21 01:03:34;;;;;;;;;20.20;18.40;;;;;;;;5050080;28;9043;-83
2023/06/21 01:06:08;;;;;;;;;17.00;15.20;;;;;;;;5063541;28;8985;-81
2023/06/21 01:08:42;;;;;;;;;14.80;13.40;;;;;;;;5040107;28;8872;-83
2023/06/21 01:11:18;;;;;;;;;15.20;14.40;;;;;;;;5051298;28;8897;-83
2023/06/21 01:14:03;;;;;;;;;14.40;13.00;;;;;;;;5051030;28;8857;-82
2023/06/21 01:16:37;;;;;;;;;15.00;14.40;;;;;;;;5061329;28;8866;-84
2023/06/21 01:19:07;;;;;;;;;18.60;12.40;;;;;;;;5049552;28;8895;-85
2023/06/21 01:21:35;;;;;;;;;13.00;13.00;;;;;;;;5049009;28;8877;-86
2023/06/21 01:24:16;;;;;;;;;17.80;14.00;;;;;;;;5049278;28;8866;-86
2023/06/21 01:26:59;;;;;;;;;13.20;12.60;;;;;;;;5048913;28;8879;-82
2023/06/21 01:29:31;;;;;;;;;11.40;11.40;;;;;;;;5049246;28;8887;-84
2023/06/21 01:32:00;;;;;;;;;14.80;12.00;;;;;;;;5060725;28;8818;-81
2023/06/21 01:34:27;;;;;;;;;11.00;11.00;;;;;;;;5049416;28;8857;-83
2023/06/21 01:36:57;;;;;;;;;9.20;9.20;;;;;;;;5047832;28;8884;-82
2023/06/21 01:39:28;;;;;;;;;11.80;11.40;;;;;;;;5049106;28;8952;-80
2023/06/21 01:41:55;;;;;;;;;18.60;15.60;;;;;;;;5055972;28;8862;-84
2023/06/21 01:44:23;;;;;;;;;13.40;13.00;;;;;;;;5054097;28;8846;-81
2023/06/21 01:46:53;;;;;;;;;16.00;16.00;;;;;;;;5060917;28;8869;-82
2023/06/21 01:49:26;;;;;;;;;12.60;11.00;;;;;;;;5049358;28;8880;-81
2023/06/21 01:51:54;;;;;;;;;17.00;13.60;;;;;;;;5050646;28;8938;-82
2023/06/21 01:54:24;;;;;;;;;14.25;14.25;;;;;;;;5052352;28;8847;-82
2023/06/21 01:56:55;;;;;;;;;11.20;10.40;;;;;;;;5057812;28;8968;-82
2023/06/21 01:59:23;;;;;;;;;16.20;14.60;;;;;;;;5048806;28;8845;-84
2023/06/21 02:01:55;;;;;;;;;15.75;15.00;;;;;;;;5049103;28;8806;-81
2023/06/21 02:04:25;;;;;;;;;14.80;14.80;;;;;;;;5053148;28;8870;-81
2023/06/21 02:06:52;;;;;;;;;17.00;15.00;;;;;;;;5050751;28;8845;-84
2023/06/21 02:09:20;;;;;;;;;15.25;15.25;;;;;;;;5047999;28;8876;-80
2023/06/21 02:11:49;;;;;;;;;17.00;14.75;;;;;;;;5048231;28;8862;-81
2023/06/21 02:14:20;;;;;;;;;15.00;14.00;;;;;;;;5048647;28;8865;-81
2023/06/21 02:16:48;;;;;;;;;12.50;12.50;;;;;;;;5059872;28;8981;-81
2023/06/21 02:19:17;;;;;;;;;13.00;13.00;;;;;;;;5061176;28;9656;-79
2023/06/21 02:21:45;;;;;;;;;12.25;11.50;;;;;;;;5050899;28;9001;-79
2023/06/21 02:24:12;;;;;;;;;19.00;15.25;;;;;;;;5044454;28;8851;-81
2023/06/21 02:26:40;;;;;;;;;11.00;10.00;;;;;;;;5055196;28;8946;-81
2023/06/21 02:29:07;;;;;;;;;12.50;12.50;;;;;;;;5056357;28;8851;-81
2023/06/21 02:31:34;;;;;;;;;14.75;14.75;;;;;;;;5062064;28;8807;-82
2023/06/21 02:34:01;;;;;;;;;14.75;12.00;;;;;;;;5055472;28;8861;-84
2023/06/21 02:36:30;;;;;;;;;12.00;10.50;;;;;;;;5055984;28;8965;-88
2023/06/21 02:38:58;;;;;;;;;12.50;12.50;;;;;;;;5048037;28;9679;-82
2023/06/21 02:41:27;;;;;;;;;14.75;12.25;;;;;;;;5052187;28;8847;-86
2023/06/21 02:43:57;;;;;;;;;11.25;11.25;;;;;;;;5052285;28;8861;-81
2023/06/21 02:46:25;;;;;;;;;7.75;7.75;;;;;;;;5049253;28;8968;-88
2023/06/21 02:48:52;;;;;;;;;11.75;11.75;;;;;;;;5053004;28;8873;-85
2023/06/21 02:51:24;;;;;;;;;10.50;10.50;;;;;;;;5054141;28;8861;-81
2023/06/21 02:53:53;;;;;;;;;13.50;11.50;;;;;;;;5049376;28;8870;-87
2023/06/21 02:56:23;;;;;;;;;12.00;11.50;;;;;;;;5061455;28;9643;-83
2023/06/21 02:58:51;;;;;;;;;10.00;10.00;;;;;;;;5051715;28;8881;-83
2023/06/21 03:01:18;;;;;;;;;11.50;10.00;;;;;;;;5052579;28;8956;-86
2023/06/21 03:03:48;;;;;;;;;10.00;8.75;;;;;;;;5054789;28;8943;-87
2023/06/21 03:06:15;;;;;;;;;14.00;14.00;;;;;;;;5056949;28;8927;-88
2023/06/21 03:08:43;;;;;;;;;12.25;11.00;;;;;;;;5055228;28;8996;-86
2023/06/21 03:11:12;;;;;;;;;11.00;9.75;;;;;;;;5055400;28;8925;-85
2023/06/21 03:13:42;;;;;;;;;11.50;10.00;;;;;;;;5054723;28;8876;-81
2023/06/21 03:16:09;;;;;;;;;9.00;9.00;;;;;;;;5063819;28;8853;-89
2023/06/21 03:18:37;;;;;;;;;11.75;11.00;;;;;;;;5055706;28;8858;-89
2023/06/21 03:21:04;;;;;;;;;10.25;10.25;;;;;;;;5055136;28;8849;-90
2023/06/21 03:23:31;;;;;;;;;11.50;11.50;;;;;;;;5065707;28;8960;-82
2023/06/21 03:25:58;;;;;;;;;11.00;11.00;;;;;;;;5053213;28;8972;-88
2023/06/21 03:28:27;;;;;;;;;10.25;9.00;;;;;;;;5055364;28;8830;-91
2023/06/21 03:30:57;;;;;;;;;10.25;9.00;;;;;;;;5069597;28;8775;-85
2023/06/21 03:33:24;;;;;;;;;8.50;8.50;;;;;;;;5053092;28;8849;-87
2023/06/21 03:35:54;;;;;;;;;8.50;8.50;;;;;;;;5051684;28;8865;-83
2023/06/21 03:38:22;;;;;;;;;11.50;10.00;;;;;;;;5054170;28;8854;-84
2023/06/21 03:40:49;;;;;;;;;13.00;10.00;;;;;;;;5058088;28;8858;-86
2023/06/21 03:43:16;;;;;;;;;12.50;10.25;;;;;;;;5051767;28;8869;-87
2023/06/21 03:45:48;;;;;;;;;9.00;8.75;;;;;;;;5060810;28;8877;-84
2023/06/21 03:48:15;;;;;;;;;10.50;9.75;;;;;;;;5061837;28;8872;-85
2023/06/21 03:50:43;;;;;;;;;10.75;10.75;;;;;;;;5053946;28;9035;-85
2023/06/21 03:53:10;;;;;;;;;10.50;9.75;;;;;;;;5055364;28;8861;-85
2023/06/21 03:55:38;;;;;;;;;9.50;9.25;;;;;;;;5054147;28;8849;-86
2023/06/21 03:58:05;;;;;;;;;13.00;11.00;;;;;;;;5058049;28;8893;-83
2023/06/21 04:00:32;;;;;;;;;12.25;11.00;;;;;;;;5057583;28;8916;-82
2023/06/21 04:03:01;;;;;;;;;14.25;10.75;;;;;;;;5067871;28;8861;-81
2023/06/21 04:05:28;;;;;;;;;7.50;7.50;;;;;;;;5051592;28;8904;-81
2023/06/21 04:07:56;;;;;;;;;11.25;10.50;;;;;;;;5064327;28;8875;-80
2023/06/21 04:10:23;;;;;;;;;12.75;11.25;;;;;;;;5063435;28;9017;-81
2023/06/21 04:12:52;;;;;;;;;9.00;9.00;;;;;;;;5060459;28;9002;-81
2023/06/21 04:15:20;;;;;;;;;6.00;6.00;;;;;;;;5066262;28;8978;-80
2023/06/21 04:17:49;;;;;;;;;9.00;9.00;;;;;;;;5064501;28;8851;-80
2023/06/21 04:20:17;;;;;;;;;9.25;9.25;;;;;;;;5060570;28;8866;-80
2023/06/21 04:22:45;;;;;;;;;12.25;10.75;;;;;;;;5063223;28;8905;-80
2023/06/21 04:25:13;;;;;;;;;12.75;11.50;;;;;;;;5061378;28;8866;-80
2023/06/21 04:27:40;;;;;;;;;8.75;8.75;;;;;;;;5061821;28;8857;-79
2023/06/21 04:30:10;;;;;;;;;10.75;10.75;;;;;;;;5059719;28;8966;-79
2023/06/21 04:32:44;;;;;;;;;13.75;9.75;;;;;;;;5061760;28;8973;-80
2023/06/21 04:35:14;;;;;;;;;9.25;9.25;;;;;;;;5058488;28;8863;-79
2023/06/21 04:37:44;;;;;;;;;14.00;11.25;;;;;;;;5059218;28;8851;-80
2023/06/21 04:40:14;;;;;;;;;10.50;10.50;;;;;;;;5058688;28;8849;-79
2023/06/21 04:42:42;;;;;;;;;10.00;8.50;;;;;;;;5063884;28;8854;-79
2023/06/21 04:45:14;;;;;;;;;11.25;10.75;;;;;;;;5055851;28;8846;-79
2023/06/21 04:47:41;;;;;;;;;13.50;12.25;;;;;;;;5055411;28;8991;-79
2023/06/21 04:50:10;;;;;;;;;12.50;11.75;;;;;;;;5061544;28;8897;-80
2023/06/21 04:52:37;;;;;;;;;13.25;11.75;;;;;;;;5052294;28;8869;-79
2023/06/21 04:55:07;;;;;;;;;14.00;12.75;;;;;;;;5052544;28;8893;-79
2023/06/21 04:57:35;;;;;;;;;14.75;14.75;;;;;;;;5051260;28;8878;-80
2023/06/21 05:00:06;;;;;;;;;14.75;14.75;;;;;;;;5052559;28;8857;-79
2023/06/21 05:02:34;;;;;;;;;11.25;11.25;;;;;;;;5053183;28;8833;-79
2023/06/21 05:05:01;;;;;;;;;16.50;15.25;;;;;;;;5050269;28;8983;-79
2023/06/21 05:07:28;;;;;;;;;17.75;16.25;;;;;;;;5050545;28;8850;-80
2023/06/21 05:09:56;;;;;;;;;15.75;15.75;;;;;;;;5050895;28;8899;-83
2023/06/21 05:12:24;;;;;;;;;15.00;14.00;;;;;;;;5050119;28;8926;-81
2023/06/21 05:14:52;;;;;;;;;14.25;14.25;;;;;;;;5049666;28;8923;-83
2023/06/21 05:17:19;;;;;;;;;18.75;16.25;;;;;;;;5050637;28;8889;-83
2023/06/21 05:19:46;;;;;;;;;12.25;12.25;;;;;;;;5049434;28;8883;-83
2023/06/21 05:22:13;;;;;;;;;19.25;15.75;;;;;;;;5051662;28;8861;-84
2023/06/21 05:24:41;;;;;;;;;20.00;17.25;;;;;;;;5050523;28;8911;-84
2023/06/21 05:27:09;;;;;;;;;21.00;18.50;;;;;;;;5050986;28;8882;-83
2023/06/21 05:29:37;;;;;;;;;20.75;19.25;;;;;;;;5050008;28;8877;-84
2023/06/21 05:32:05;;;;;;;;;14.00;14.00;;;;;;;;5048660;28;8833;-84
2023/06/21 05:34:33;;;;;;;;;17.75;17.75;;;;;;;;5050170;28;8857;-84
2023/06/21 05:37:00;;;;;;;;;18.50;18.50;;;;;;;;5050134;28;8873;-84
2023/06/21 05:39:30;;;;;;;;;19.00;19.00;;;;;;;;5048991;28;8983;-81
2023/06/21 05:42:00;;;;;;;;;16.75;15.50;;;;;;;;5063705;28;8859;-84
2023/06/21 05:44:28;;;;;;;;;20.75;19.25;;;;;;;;5062666;28;8968;-83
2023/06/21 05:46:56;;;;;;;;;18.75;16.25;;;;;;;;5048885;28;8845;-84
2023/06/21 05:49:26;;;;;;;;;18.00;16.75;;;;;;;;5048110;28;8840;-83
2023/06/21 05:51:53;;;;;;;;;14.75;14.75;;;;;;;;5051350;28;8856;-83
2023/06/21 05:54:21;;;;;;;;;12.00;12.00;;;;;;;;5048458;28;8853;-83
2023/06/21 05:56:50;;;;;;;;;14.00;14.00;;;;;;;;5049125;28;8868;-85
2023/06/21 05:59:17;;;;;;;;;14.50;14.50;;;;;;;;5054183;28;8981;-83
2023/06/21 06:01:45;;;;;;;;;9.75;9.75;;;;;;;;5057578;28;8810;-84
2023/06/21 06:04:14;;;;;;;;;12.50;11.00;;;;;;;;5051580;28;8964;-84
2023/06/21 06:06:42;;;;;;;;;13.50;12.50;;;;;;;;5050353;28;8861;-85
2023/06/21 06:09:10;;;;;;;;;11.75;11.75;;;;;;;;5062329;28;8862;-83
2023/06/21 06:11:37;;;;;;;;;8.00;8.00;;;;;;;;5050132;28;8873;-82
2023/06/21 06:14:05;;;;;;;;;13.60;11.80;;;;;;;;5046960;28;8865;-84
2023/06/21 06:16:32;;;;;;;;;11.40;10.40;;;;;;;;5062008;28;8859;-85
2023/06/21 06:18:59;;;;;;;;;10.40;10.40;;;;;;;;5050821;28;8865;-81
2023/06/21 06:21:31;;;;;;;;;8.40;8.40;;;;;;;;5051201;28;8881;-85
2023/06/21 06:23:59;;;;;;;;;12.20;11.00;;;;;;;;5049966;28;8853;-83
2023/06/21 06:26:27;;;;;;;;;11.00;11.00;;;;;;;;5052825;28;8862;-85
2023/06/21 06:28:56;;;;;;;;;5.80;5.80;;;;;;;;5052110;28;8885;-84
2023/06/21 06:31:26;;;;;;;;;8.40;6.80;;;;;;;;5054990;28;8793;-81
2023/06/21 06:33:53;;;;;;;;;7.80;6.80;;;;;;;;5064007;28;8866;-84
2023/06/21 06:36:21;;;;;;;;;3.80;2.80;;;;;;;;5056702;28;8881;-83
2023/06/21 06:38:50;;;;;;;;;5.00;5.00;;;;;;;;5062180;28;8858;-83
2023/06/21 06:41:20;;;;;;;;;10.40;7.00;;;;;;;;5056679;28;8874;-83
2023/06/21 06:43:48;;;;;;;;;6.40;6.00;;;;;;;;5053865;28;8841;-84
2023/06/21 06:46:15;;;;;;;;;5.20;5.20;;;;;;;;5056430;28;8830;-83
2023/06/21 06:48:42;;;;;;;;;5.60;5.60;;;;;;;;5053828;28;8862;-83
2023/06/21 06:51:10;;;;;;;;;5.20;5.20;;;;;;;;5066309;28;8902;-82
2023/06/21 06:53:37;;;;;;;;;3.80;3.00;;;;;;;;5061166;28;8890;-82
2023/06/21 06:56:07;;;;;;;;;5.00;5.00;;;;;;;;5061066;28;8861;-80
2023/06/21 06:58:35;;;;;;;;;2.80;2.80;;;;;;;;5056612;28;9652;-80
2023/06/21 07:01:05;;;;;;;;;5.00;5.00;;;;;;;;5060763;28;9576;-82
2023/06/21 07:03:36;;;;;;;;;4.00;3.60;;;;;;;;5065763;28;8842;-80
2023/06/21 07:06:03;;;;;;;;;5.20;4.00;;;;;;;;5061455;28;8866;-81
2023/06/21 07:08:35;;;;;;;;;2.40;2.40;;;;;;;;5066808;28;8859;-80
2023/06/21 07:11:10;;;;;;;;;3.00;3.00;;;;;;;;5061108;28;8946;-83
2023/06/21 07:13:38;;;;;;;;;4.00;4.00;;;;;;;;5059021;28;8893;-82
2023/06/21 07:16:05;;;;;;;;;2.80;2.80;;;;;;;;5052762;28;8877;-82
2023/06/21 07:18:33;;;;;;;;;4.60;3.00;;;;;;;;5068014;28;8901;-84
2023/06/21 07:21:02;;;;;;;;;2.60;2.60;;;;;;;;5058344;28;8859;-82
2023/06/21 07:23:32;;;;;;;;;3.20;2.20;;;;;;;;5054591;28;8839;-83
2023/06/21 07:26:00;;;;;;;;;3.40;3.00;;;;;;;;5061362;28;8862;-82
2023/06/21 07:28:29;;;;;;;;;2.00;2.00;;;;;;;;5057384;28;8885;-82
2023/06/21 07:30:56;;;;;;;;;5.00;3.00;;;;;;;;5050317;28;8796;-82
2023/06/21 07:33:24;;;;;;;;;3.40;3.40;;;;;;;;5066510;28;8859;-81
2023/06/21 07:35:51;;;;;;;;;2.20;2.20;;;;;;;;5059091;28;8861;-81
2023/06/21 07:38:18;;;;;;;;;3.00;3.00;;;;;;;;5051019;28;8846;-82
2023/06/21 07:40:46;;;;;;;;;5.40;3.60;;;;;;;;5050787;28;8861;-82
2023/06/21 07:43:13;;;;;;;;;3.00;3.00;;;;;;;;5062718;28;9582;-82
2023/06/21 07:45:42;;;;;;;;;3.40;3.40;;;;;;;;5049961;28;8850;-81
2023/06/21 07:48:09;;;;;;;;;2.80;2.80;;;;;;;;5050570;28;8959;-81
2023/06/21 07:50:36;;;;;;;;;3.80;3.80;;;;;;;;5050082;28;8849;-81
2023/06/21 07:53:04;;;;;;;;;2.80;2.80;;;;;;;;5051055;28;8861;-82
2023/06/21 07:55:31;;;;;;;;;2.80;2.80;;;;;;;;5050459;28;9624;-80
2023/06/21 07:58:01;;;;;;;;;3.00;2.20;;;;;;;;5050396;28;8845;-81
2023/06/21 08:00:28;;;;;;;;;3.40;2.80;;;;;;;;5051307;28;8801;-84
2023/06/21 08:02:57;;;;;;;;;1.80;1.80;;;;;;;;5051244;28;8861;-88
2023/06/21 08:05:27;;;;;;;;;2.80;2.80;;;;;;;;5051751;28;8865;-90
2023/06/21 08:07:56;;;;;;;;;2.00;2.00;;;;;;;;5052268;28;8881;-89
2023/06/21 08:10:23;;;;;;;;;2.80;2.80;;;;;;;;5059918;28;8867;-80
2023/06/21 08:12:51;;;;;;;;;3.20;1.20;;;;;;;;5061453;28;8851;-81
2023/06/21 08:15:20;;;;;;;;;1.20;1.20;;;;;;;;5062913;28;8897;-80
2023/06/21 08:17:48;;;;;;;;;1.20;1.20;;;;;;;;5061119;28;8847;-81
2023/06/21 08:20:17;;;;;;;;;2.20;2.20;;;;;;;;5062176;28;8878;-86
2023/06/21 08:22:47;;;;;;;;;2.20;2.20;;;;;;;;5063244;28;8981;-81
2023/06/21 08:25:16;;;;;;;;;2.60;2.60;;;;;;;;5061337;28;8887;-80
2023/06/21 08:27:46;;;;;;;;;1.80;1.80;;;;;;;;5065468;28;8847;-80
2023/06/21 08:30:14;;;;;;;;;2.20;2.20;;;;;;;;5061269;28;8861;-80
2023/06/21 08:32:44;;;;;;;;;0.60;0.60;;;;;;;;5061870;28;8861;-86
2023/06/21 08:35:12;;;;;;;;;1.20;1.20;;;;;;;;5056019;28;8884;-86
2023/06/21 08:37:41;;;;;;;;;0.80;0.80;;;;;;;;5053778;28;8959;-85
2023/06/21 08:40:13;;;;;;;;;2.20;1.00;;;;;;;;5053892;28;8885;-88
2023/06/21 08:42:40;;;;;;;;;0.00;0.00;;;;;;;;5053984;28;8841;-86
2023/06/21 08:45:11;;;;;;;;;1.80;1.80;;;;;;;;5055147;28;8858;-86
2023/06/21 08:47:38;;;;;;;;;3.80;2.20;;;;;;;;5058054;28;8866;-86
2023/06/21 08:50:11;;;;;;;;;0.20;0.20;;;;;;;;5066405;28;8948;-82
2023/06/21 08:52:43;;;;;;;;;0.00;0.00;;;;;;;;5040564;28;8850;-81
2023/06/21 08:55:12;;;;;;;;;0.00;0.00;;;;;;;;5066606;28;8993;-89
2023/06/21 08:57:46;;;;;;;;;0.80;0.80;;;;;;;;5059725;28;8843;-89
2023/06/21 09:00:15;;;;;;;;;0.80;0.00;;;;;;;;5051953;28;8853;-86
2023/06/21 09:02:47;;;;;;;;;0.00;0.00;;;;;;;;5051776;28;8865;-84
2023/06/21 09:05:27;;;;;;;;;0.00;0.00;;;;;;;;5049561;28;8861;-81
2023/06/21 09:07:57;;;;;;;;;2.80;1.40;;;;;;;;5047243;28;8869;-80
2023/06/21 09:10:28;;;;;;;;;0.00;0.00;;;;;;;;5048813;28;8918;-80
2023/06/21 09:12:57;;;;;;;;;0.40;0.40;;;;;;;;5049885;28;9028;-83
2023/06/21 09:15:25;;;;;;;;;0.40;0.40;;;;;;;;5063152;28;8847;-83
2023/06/21 09:17:52;;;;;;;;;0.00;0.00;;;;;;;;5053018;28;8899;-81
2023/06/21 09:20:20;;;;;;;;;0.20;0.20;;;;;;;;5051841;28;8847;-84
2023/06/21 09:22:48;;;;;;;;;1.00;1.00;;;;;;;;5052318;28;8883;-81
2023/06/21 09:25:18;;;;;;;;;3.00;1.00;;;;;;;;5054085;28;8835;-80
2023/06/21 09:27:45;;;;;;;;;1.00;1.00;;;;;;;;5041706;28;9643;-81
2023/06/21 09:30:14;;;;;;;;;0.60;0.60;;;;;;;;5055714;28;8857;-84
2023/06/21 09:32:41;;;;;;;;;2.60;0.60;;;;;;;;5052991;28;8960;-83
2023/06/21 09:35:09;;;;;;;;;2.20;1.00;;;;;;;;5056371;28;8994;-84
2023/06/21 09:37:45;;;;;;;;;0.40;0.40;;;;;;;;5053599;28;8942;-85
2023/06/21 09:40:14;;;;;;;;;1.00;1.00;;;;;;;;5047285;28;8865;-86
2023/06/21 09:42:43;;;;;;;;;0.40;0.40;;;;;;;;5050519;28;8862;-81
2023/06/21 09:45:16;;;;;;;;;2.60;1.00;;;;;;;;5066521;28;8878;-83
2023/06/21 09:47:45;;;;;;;;;0.60;0.60;;;;;;;;5057627;28;8858;-85
2023/06/21 09:50:13;;;;;;;;;1.00;1.00;;;;;;;;5057421;28;8857;-83
2023/06/21 09:52:44;;;;;;;;;3.00;0.00;;;;;;;;5049327;28;8921;-80
2023/06/21 09:55:14;;;;;;;;;1.60;1.60;;;;;;;;5058677;28;8839;-81
2023/06/21 09:57:45;;;;;;;;;1.00;1.00;;;;;;;;5050381;28;8872;-81
2023/06/21 10:00:13;;;;;;;;;0.40;0.40;;;;;;;;5048157;28;8950;-79
2023/06/21 10:02:43;;;;;;;;;0.00;0.00;;;;;;;;5047840;28;8877;-80
2023/06/21 10:05:17;;;;;;;;;0.80;0.80;;;;;;;;5050051;28;8987;-79
2023/06/21 10:07:44;;;;;;;;;2.20;0.60;;;;;;;;5052135;28;8861;-79
2023/06/21 10:10:12;;;;;;;;;2.40;1.00;;;;;;;;5065352;28;9627;-80
2023/06/21 10:12:51;;;;;;;;;1.20;1.00;;;;;;;;5040536;28;8872;-78
2023/06/21 10:15:19;;;;;;;;;0.40;0.40;;;;;;;;5053637;28;8854;-78
2023/06/21 10:17:47;;;;;;;;;0.40;0.40;;;;;;;;5061537;28;8866;-77
2023/06/21 10:20:15;;;;;;;;;1.00;1.00;;;;;;;;5056366;28;8869;-79
2023/06/21 10:22:46;;;;;;;;;1.80;0.00;;;;;;;;5052011;28;8885;-79
2023/06/21 10:25:15;;;;;;;;;0.00;0.00;;;;;;;;5066242;28;8854;-82
2023/06/21 10:27:45;;;;;;;;;0.00;0.00;;;;;;;;5055540;28;8889;-81
2023/06/21 10:30:19;;;;;;;;;1.00;1.00;;;;;;;;5062017;28;8854;-79
2023/06/21 10:32:48;;;;;;;;;1.40;1.00;;;;;;;;5063103;28;8881;-79
2023/06/21 10:35:19;;;;;;;;;1.00;1.00;;;;;;;;5063815;28;8869;-81
2023/06/21 10:37:52;;;;;;;;;0.60;0.60;;;;;;;;5061566;28;8869;-82
2023/06/21 10:40:20;;;;;;;;;0.80;0.80;;;;;;;;5049711;28;8883;-83
2023/06/21 10:42:48;;;;;;;;;1.00;1.00;;;;;;;;5066553;28;8855;-84
2023/06/21 10:45:17;;;;;;;;;1.00;1.00;;;;;;;;5070176;28;9024;-82
2023/06/21 10:47:45;;;;;;;;;1.80;1.80;;;;;;;;5066264;28;8999;-82
2023/06/21 10:50:13;;;;;;;;;1.60;1.60;;;;;;;;5060920;28;8849;-83
2023/06/21 10:52:41;;;;;;;;;1.00;1.00;;;;;;;;5064291;28;9812;-84
2023/06/21 10:55:21;;;;;;;;;0.00;0.00;;;;;;;;5057741;28;8835;-85
2023/06/21 10:57:52;;;;;;;;;1.40;1.40;;;;;;;;5053764;28;8873;-84
2023/06/21 11:00:23;;;;;;;;;1.00;1.00;;;;;;;;5051761;28;8982;-84
2023/06/21 11:02:50;;;;;;;;;1.60;1.60;;;;;;;;5062098;28;8934;-85
2023/06/21 11:05:18;;;;;;;;;1.00;1.00;;;;;;;;5060658;28;8862;-86
2023/06/21 11:07:57;;;;;;;;;0.80;0.80;;;;;;;;5061837;28;8946;-87
2023/06/21 11:10:42;;;;;;;;;0.80;0.80;;;;;;;;5062063;28;9735;-84
2023/06/21 11:13:11;;;;;;;;;1.00;1.00;;;;;;;;5049330;28;8850;-85
2023/06/21 11:15:42;;;;;;;;;0.60;0.60;;;;;;;;5063821;28;8888;-85
2023/06/21 11:18:10;;;;;;;;;0.20;0.20;;;;;;;;5067713;28;8863;-85
2023/06/21 11:20:48;;;;;;;;;1.00;1.00;;;;;;;;5066074;28;8952;-86
2023/06/21 11:23:17;;;;;;;;;1.20;1.20;;;;;;;;5070027;28;8874;-86
2023/06/21 11:25:51;;;;;;;;;0.40;0.40;;;;;;;;5066532;28;8866;-85
2023/06/21 11:28:26;;;;;;;;;1.00;1.00;;;;;;;;5057777;28;8882;-83
2023/06/21 11:31:17;;;;;;;;;0.00;0.00;;;;;;;;5069534;28;8894;-85
2023/06/21 11:33:53;;;;;;;;;1.40;0.00;;;;;;;;5069426;28;8861;-84
2023/06/21 11:36:31;;;;;;;;;0.40;0.40;;;;;;;;5068939;28;8862;-81
2023/06/21 11:39:27;;;;;;;;;1.00;1.00;;;;;;;;5069375;28;8850;-81
2023/06/21 11:42:04;;;;;;;;;1.00;1.00;;;;;;;;5066676;28;8965;-80
2023/06/21 11:44:34;;;;;;;;;1.40;1.40;;;;;;;;5069015;28;8851;-82
2023/06/21 11:47:18;;;;;;;;;1.00;1.00;;;;;;;;5069167;28;8846;-80
2023/06/21 11:49:56;;;;;;;;;1.20;0.00;;;;;;;;5069498;28;8861;-83
2023/06/21 11:52:33;;;;;;;;;1.00;1.00;;;;;;;;5061584;28;9008;-83
2023/06/21 11:55:13;;;;;;;;;0.20;0.20;;;;;;;;5043667;28;8876;-77
2023/06/21 11:57:47;;;;;;;;;1.20;1.20;;;;;;;;5048259;28;8842;-79
2023/06/21 12:00:15;;;;;;;;;1.00;1.00;;;;;;;;5058579;28;8856;-78
2023/06/21 12:02:46;;;;;;;;;0.00;0.00;;;;;;;;5055530;28;8875;-76
2023/06/21 12:05:15;;;;;;;;;1.00;1.00;;;;;;;;5054292;28;8858;-76
2023/06/21 12:07:42;;;;;;;;;1.00;1.00;;;;;;;;5053362;28;8885;-76
2023/06/21 12:10:13;;;;;;;;;0.00;0.00;;;;;;;;5057120;28;8839;-79
2023/06/21 12:12:40;;;;;;;;;0.20;0.20;;;;;;;;5051429;28;8862;-80
2023/06/21 12:15:08;;;;;;;;;0.00;0.00;;;;;;;;5054622;28;8859;-77
2023/06/21 12:17:35;;;;;;;;;0.00;0.00;;;;;;;;5048914;28;9682;-78
2023/06/21 12:20:11;;;;;;;;;0.00;0.00;;;;;;;;5057078;28;8924;-80
2023/06/21 12:22:41;;;;;;;;;0.40;0.40;;;;;;;;5053096;28;8876;-80
2023/06/21 12:25:09;;;;;;;;;0.80;0.80;;;;;;;;5049509;28;8888;-79
2023/06/21 12:27:36;;;;;;;;;1.00;1.00;;;;;;;;5053882;28;8868;-79
2023/06/21 12:30:04;;;;;;;;;2.00;2.00;;;;;;;;5061052;28;8857;-79
2023/06/21 12:32:40;;;;;;;;;0.40;0.40;;;;;;;;5049605;28;8976;-80
2023/06/21 12:35:11;;;;;;;;;0.20;0.20;;;;;;;;5049439;28;8849;-81
2023/06/21 12:37:40;;;;;;;;;0.00;0.00;;;;;;;;5049374;28;8849;-78
2023/06/21 12:40:11;;;;;;;;;1.40;0.80;;;;;;;;5048924;28;8876;-82
2023/06/21 12:42:39;;;;;;;;;1.00;0.60;;;;;;;;5054649;28;8870;-84
2023/06/21 12:45:09;;;;;;;;;0.20;0.20;;;;;;;;5050381;28;8955;-82
2023/06/21 12:47:47;;;;;;;;;0.80;0.80;;;;;;;;5051047;28;8984;-82
2023/06/21 12:50:22;;;;;;;;;1.00;1.00;;;;;;;;5056520;28;8849;-83
2023/06/21 12:53:03;;;;;;;;;0.40;0.40;;;;;;;;5053616;28;8993;-82
2023/06/21 12:55:30;;;;;;;;;0.80;0.80;;;;;;;;5049725;28;8841;-82
2023/06/21 12:58:00;;;;;;;;;1.00;1.00;;;;;;;;5049759;28;9744;-83
2023/06/21 13:00:30;;;;;;;;;1.00;1.00;;;;;;;;5047136;28;8847;-81
2023/06/21 13:03:00;;;;;;;;;0.00;0.00;;;;;;;;5047463;28;8845;-81
2023/06/21 13:05:30;;;;;;;;;1.00;1.00;;;;;;;;5049339;28;8853;-80
2023/06/21 13:07:59;;;;;;;;;1.80;1.80;;;;;;;;5057898;28;8862;-82
2023/06/21 13:10:26;;;;;;;;;1.20;0.00;;;;;;;;5054589;28;8881;-80
2023/06/21 13:12:55;;;;;;;;;1.00;1.00;;;;;;;;5062030;28;9012;-79
2023/06/21 13:15:22;;;;;;;;;0.20;0.20;;;;;;;;5055446;28;8834;-79
2023/06/21 13:17:50;;;;;;;;;2.00;2.00;;;;;;;;5053786;28;9005;-78
2023/06/21 13:20:17;;;;;;;;;0.40;0.00;;;;;;;;5052518;28;8845;-78
2023/06/21 13:22:46;;;;;;;;;1.00;1.00;;;;;;;;5054432;28;8876;-78
2023/06/21 13:25:13;;;;;;;;;1.00;1.00;;;;;;;;5054075;28;8966;-77
2023/06/21 13:27:40;;;;;;;;;2.60;1.00;;;;;;;;5052852;28;8988;-76
2023/06/21 13:30:09;;;;;;;;;1.00;1.00;;;;;;;;5065419;28;8955;-78
2023/06/21 13:32:38;;;;;;;;;0.60;0.60;;;;;;;;5064357;28;8850;-79
2023/06/21 13:35:06;;;;;;;;;2.00;2.00;;;;;;;;5058590;28;8944;-78
2023/06/21 13:37:34;;;;;;;;;0.00;0.00;;;;;;;;5052556;28;8964;-80
2023/06/21 13:40:04;;;;;;;;;0.20;0.20;;;;;;;;5054377;28;8851;-81
2023/06/21 13:42:32;;;;;;;;;0.00;0.00;;;;;;;;5047559;28;9726;-78
2023/06/21 13:45:01;;;;;;;;;1.00;1.00;;;;;;;;5054498;28;8835;-80
2023/06/21 13:47:32;;;;;;;;;1.00;1.00;;;;;;;;5048252;28;8976;-81
2023/06/21 13:50:01;;;;;;;;;1.00;1.00;;;;;;;;5059940;28;8913;-81
2023/06/21 13:52:31;;;;;;;;;1.00;1.00;;;;;;;;5047932;28;8892;-80
2023/06/21 13:55:03;;;;;;;;;2.80;1.00;;;;;;;;5048276;28;8850;-80
2023/06/21 13:57:31;;;;;;;;;1.00;1.00;;;;;;;;5048910;28;8970;-80
2023/06/21 13:59:59;;;;;;;;;0.40;0.40;;;;;;;;5039135;28;8873;-81
2023/06/21 14:02:29;;;;;;;;;1.00;1.00;;;;;;;;5050273;28;8836;-79
2023/06/21 14:04:56;;;;;;;;;1.00;1.00;;;;;;;;5047387;28;8850;-79
2023/06/21 14:07:23;;;;;;;;;1.00;1.00;;;;;;;;5047980;28;8931;-80
2023/06/21 14:09:51;;;;;;;;;1.60;0.80;;;;;;;;5048209;28;8987;-81
2023/06/21 14:12:19;;;;;;;;;1.00;1.00;;;;;;;;5047611;28;8842;-81
2023/06/21 14:14:46;;;;;;;;;0.00;0.00;;;;;;;;5057493;28;8865;-81
2023/06/21 14:17:14;;;;;;;;;1.20;1.20;;;;;;;;5048915;28;8862;-82
2023/06/21 14:19:42;;;;;;;;;1.40;1.40;;;;;;;;5058968;28;8973;-81
2023/06/21 14:22:10;;;;;;;;;2.20;2.20;;;;;;;;5049661;28;8950;-81
2023/06/21 14:24:38;;;;;;;;;1.00;1.00;;;;;;;;5050308;28;8853;-82
2023/06/21 14:27:06;;;;;;;;;0.00;0.00;;;;;;;;5050603;28;8889;-81
2023/06/21 14:29:35;;;;;;;;;2.80;2.80;;;;;;;;5051563;28;8872;-81
2023/06/21 14:32:02;;;;;;;;;2.00;2.00;;;;;;;;5044963;28;8798;-82
2023/06/21 14:34:29;;;;;;;;;2.00;2.00;;;;;;;;5047972;28;9667;-83
2023/06/21 14:36:56;;;;;;;;;2.00;2.00;;;;;;;;5050511;28;8861;-81
2023/06/21 14:39:24;;;;;;;;;2.60;1.00;;;;;;;;5047668;28;8849;-82
2023/06/21 14:41:51;;;;;;;;;1.80;1.80;;;;;;;;5055028;28;8976;-80
2023/06/21 14:44:18;;;;;;;;;2.20;2.20;;;;;;;;5054971;28;8854;-81
2023/06/21 14:46:47;;;;;;;;;1.00;1.00;;;;;;;;5061812;28;8827;-81
2023/06/21 14:49:14;;;;;;;;;3.00;1.40;;;;;;;;5052075;28;8833;-81
2023/06/21 14:51:41;;;;;;;;;1.20;1.20;;;;;;;;5054395;28;9613;-79
2023/06/21 14:54:12;;;;;;;;;0.80;0.80;;;;;;;;5051230;28;8960;-79
2023/06/21 14:56:43;;;;;;;;;1.80;1.00;;;;;;;;5050932;28;8841;-81
2023/06/21 14:59:10;;;;;;;;;1.80;1.80;;;;;;;;5048969;28;8876;-79